createdAt,value
2022-12-18T00:00:56.646Z,103056.03
2022-12-18T00:02:02.344Z,103046.50
2022-12-18T00:03:04.003Z,103056.78
2022-12-18T00:04:08.826Z,103060.00
2022-12-18T00:05:10.439Z,103072.59
2022-12-18T00:06:12.725Z,103062.44
2022-12-18T00:07:14.127Z,103066.28
2022-12-18T00:08:16.505Z,103063.28
2022-12-18T00:09:17.946Z,103064.31
2022-12-18T00:10:19.351Z,103066.16
2022-12-18T00:11:24.499Z,103056.88
2022-12-18T00:12:30.011Z,103053.94
2022-12-18T00:13:32.212Z,103057.66
2022-12-18T00:14:33.732Z,103062.88
2022-12-18T00:15:36.116Z,103054.91
2022-12-18T00:16:37.991Z,103063.31
2022-12-18T00:17:39.413Z,103067.72
2022-12-18T00:18:41.622Z,103065.88
2022-12-18T00:19:43.332Z,103062.44
2022-12-18T00:20:44.729Z,103061.97
2022-12-18T00:21:46.546Z,103064.31
2022-12-18T00:22:47.944Z,103065.47
2022-12-18T00:23:51.164Z,103069.13
2022-12-18T00:24:52.584Z,103059.53
2022-12-18T00:25:54.018Z,103061.09
2022-12-18T00:26:55.511Z,103061.09
2022-12-18T00:27:56.910Z,103061.81
2022-12-18T00:29:03.424Z,103056.25
2022-12-18T00:30:07.638Z,103057.88
2022-12-18T00:31:11.722Z,103057.88
2022-12-18T00:32:13.183Z,103056.19
2022-12-18T00:33:14.630Z,103059.53
2022-12-18T00:34:16.061Z,103061.03
2022-12-18T00:35:17.503Z,103054.78
2022-12-18T00:36:24.490Z,103056.59
2022-12-18T00:37:25.889Z,103049.06
2022-12-18T00:38:27.312Z,103055.03
2022-12-18T00:39:28.724Z,103051.66
2022-12-18T00:40:30.135Z,103045.16
2022-12-18T00:41:50.512Z,103047.25
2022-12-18T00:42:57.748Z,103051.81
2022-12-18T00:43:59.128Z,103044.69
2022-12-18T00:45:00.539Z,103050.66
2022-12-18T00:46:02.114Z,103054.13
2022-12-18T00:47:03.546Z,103054.00
2022-12-18T00:48:05.260Z,103057.81
2022-12-18T00:49:06.807Z,103052.56
2022-12-18T00:50:08.964Z,103059.16
2022-12-18T00:51:10.364Z,103052.66
2022-12-18T00:52:11.825Z,103065.00
2022-12-18T00:53:13.211Z,103058.50
2022-12-18T00:54:15.034Z,103051.78
2022-12-18T00:55:17.153Z,103046.19
2022-12-18T00:56:18.572Z,103050.47
2022-12-18T00:57:20.455Z,103051.56
2022-12-18T00:58:21.833Z,103051.34
2022-12-18T00:59:23.240Z,103049.22
2022-12-18T01:00:24.720Z,103043.13
2022-12-18T01:01:26.293Z,103048.13
2022-12-18T01:02:27.928Z,103047.66
2022-12-18T01:03:29.508Z,103056.66
2022-12-18T01:04:33.020Z,103055.34
2022-12-18T01:05:34.786Z,103061.59
2022-12-18T01:06:36.240Z,103057.75
2022-12-18T01:07:38.454Z,103056.16
2022-12-18T01:08:40.356Z,103053.19
2022-12-18T01:09:41.810Z,103059.44
2022-12-18T01:10:43.310Z,103055.03
2022-12-18T01:11:44.732Z,103059.16
2022-12-18T01:12:49.617Z,103058.38
2022-12-18T01:13:53.247Z,103058.50
2022-12-18T01:14:54.671Z,103059.84
2022-12-18T01:15:56.083Z,103053.44
2022-12-18T01:16:57.587Z,103057.38
2022-12-18T01:17:58.976Z,103055.97
2022-12-18T01:19:00.693Z,103057.19
2022-12-18T01:20:02.170Z,103060.09
2022-12-18T01:21:12.382Z,103070.31
2022-12-18T01:22:13.838Z,103062.69
2022-12-18T01:23:15.289Z,103070.72
2022-12-18T01:24:16.799Z,103075.31
2022-12-18T01:25:18.279Z,103064.69
2022-12-18T01:26:20.069Z,103072.97
2022-12-18T01:27:21.448Z,103072.34
2022-12-18T01:28:22.831Z,103073.06
2022-12-18T01:29:24.319Z,103072.66
2022-12-18T01:30:25.724Z,103073.91
2022-12-18T01:31:32.453Z,103068.59
2022-12-18T01:32:34.402Z,103082.34
2022-12-18T01:33:36.029Z,103080.81
2022-12-18T01:34:41.152Z,103076.88
2022-12-18T01:35:43.496Z,103084.84
2022-12-18T01:36:44.921Z,103089.06
2022-12-18T01:37:46.363Z,103086.97
2022-12-18T01:38:51.871Z,103080.56
2022-12-18T01:39:55.209Z,103090.16
2022-12-18T01:41:00.997Z,103083.22
2022-12-18T01:42:11.893Z,103086.41
2022-12-18T01:43:16.309Z,103086.88
2022-12-18T01:44:56.180Z,103086.47
2022-12-18T01:46:00.796Z,103083.97
2022-12-18T01:47:02.294Z,103083.88
2022-12-18T01:48:07.988Z,103079.59
2022-12-18T01:49:09.388Z,103084.31
2022-12-18T01:50:13.473Z,103092.53
2022-12-18T01:51:15.197Z,103090.16
2022-12-18T01:52:18.746Z,103089.63
2022-12-18T01:53:23.476Z,103100.00
2022-12-18T01:54:24.855Z,103097.22
2022-12-18T01:55:31.892Z,103094.44
2022-12-18T01:56:33.352Z,103088.00
2022-12-18T01:57:35.737Z,103081.22
2022-12-18T01:58:59.472Z,103089.38
2022-12-18T02:00:05.896Z,103087.09
2022-12-18T02:01:07.395Z,103093.34
2022-12-18T02:02:09.670Z,103097.09
2022-12-18T02:03:11.338Z,103090.22
2022-12-18T02:04:27.381Z,103087.88
2022-12-18T02:05:46.022Z,103092.50
2022-12-18T02:06:53.102Z,103086.25
2022-12-18T02:08:00.430Z,103097.81
2022-12-18T02:09:24.182Z,103092.94
2022-12-18T02:10:44.584Z,103094.50
2022-12-18T02:11:53.535Z,103089.50
2022-12-18T02:13:13.330Z,103098.28
2022-12-18T02:14:46.872Z,103090.03
2022-12-18T02:16:02.368Z,103092.97
2022-12-18T02:17:17.457Z,103092.69
2022-12-18T02:18:44.151Z,103101.94
2022-12-18T02:20:12.681Z,103099.97
2022-12-18T02:21:18.047Z,103100.50
2022-12-18T02:22:57.137Z,103103.31
2022-12-18T02:24:25.218Z,103098.16
2022-12-18T02:25:54.170Z,103109.78
2022-12-18T02:27:08.493Z,103104.50
2022-12-18T02:28:14.046Z,103092.69
2022-12-18T02:29:45.960Z,103104.88
2022-12-18T02:30:50.039Z,103104.63
2022-12-18T02:31:54.744Z,103110.09
2022-12-18T02:32:58.516Z,103095.34
2022-12-18T02:34:03.386Z,103101.44
2022-12-18T02:35:06.981Z,103108.09
2022-12-18T02:36:10.420Z,103112.06
2022-12-18T02:37:16.331Z,103115.75
2022-12-18T02:38:17.938Z,103113.09
2022-12-18T02:39:22.700Z,103115.75
2022-12-18T02:40:27.296Z,103120.78
2022-12-18T02:41:29.526Z,103114.44
2022-12-18T02:42:32.019Z,103121.88
2022-12-18T02:43:33.415Z,103121.34
2022-12-18T02:44:43.311Z,103115.25
2022-12-18T02:45:50.899Z,103121.59
2022-12-18T02:46:54.620Z,103121.88
2022-12-18T02:47:57.121Z,103117.22
2022-12-18T02:49:18.595Z,103113.88
2022-12-18T02:50:28.781Z,103118.59
2022-12-18T02:51:38.501Z,103108.03
2022-12-18T02:52:48.500Z,103125.13
2022-12-18T02:54:07.748Z,103112.91
2022-12-18T02:55:21.175Z,103125.63
2022-12-18T02:56:30.029Z,103112.91
2022-12-18T02:57:36.516Z,103111.72
2022-12-18T02:59:02.029Z,103111.56
2022-12-18T03:00:09.783Z,103105.88
2022-12-18T03:01:35.817Z,103116.34
2022-12-18T03:02:40.669Z,103121.09
2022-12-18T03:04:02.169Z,103118.34
2022-12-18T03:05:09.555Z,103119.13
2022-12-18T03:06:19.411Z,103121.75
2022-12-18T03:07:34.056Z,103120.16
2022-12-18T03:08:41.810Z,103119.38
2022-12-18T03:09:47.271Z,103120.91
2022-12-18T03:10:57.199Z,103118.69
2022-12-18T03:12:26.573Z,103117.16
2022-12-18T03:13:57.081Z,103121.16
2022-12-18T03:15:07.812Z,103117.69
2022-12-18T03:16:14.612Z,103125.94
2022-12-18T03:17:19.077Z,103126.84
2022-12-18T03:18:26.182Z,103116.72
2022-12-18T03:19:30.651Z,103120.81
2022-12-18T03:20:35.147Z,103124.78
2022-12-18T03:21:44.577Z,103126.13
2022-12-18T03:22:51.270Z,103132.38
2022-12-18T03:23:54.531Z,103130.16
2022-12-18T03:24:57.481Z,103127.84
2022-12-18T03:26:07.254Z,103125.88
2022-12-18T03:27:16.239Z,103129.09
2022-12-18T03:28:22.775Z,103131.50
2022-12-18T03:29:34.412Z,103137.31
2022-12-18T03:30:39.672Z,103128.81
2022-12-18T03:31:46.334Z,103133.34
2022-12-18T03:33:33.954Z,103134.91
2022-12-18T03:34:39.347Z,103141.31
2022-12-18T03:35:43.804Z,103132.94
2022-12-18T03:36:45.203Z,103139.00
2022-12-18T03:37:46.720Z,103132.50
2022-12-18T03:38:48.176Z,103133.81
2022-12-18T03:39:49.660Z,103132.56
2022-12-18T03:41:04.031Z,103127.16
2022-12-18T03:42:23.967Z,103126.38
2022-12-18T03:43:48.436Z,103125.03
2022-12-18T03:45:02.554Z,103127.56
2022-12-18T03:46:10.712Z,103121.59
2022-12-18T03:47:28.482Z,103123.72
2022-12-18T03:48:40.437Z,103112.81
2022-12-18T03:50:01.284Z,103126.66
2022-12-18T03:51:15.781Z,103119.78
2022-12-18T03:52:46.245Z,103128.81
2022-12-18T03:54:00.489Z,103125.63
2022-12-18T03:55:04.224Z,103126.81
2022-12-18T03:56:07.489Z,103127.50
2022-12-18T03:57:15.327Z,103127.06
2022-12-18T03:58:21.053Z,103117.41
2022-12-18T03:59:24.616Z,103123.00
2022-12-18T04:00:26.243Z,103127.63
2022-12-18T04:01:34.462Z,103130.03
2022-12-18T04:02:38.617Z,103127.38
2022-12-18T04:03:41.733Z,103129.09
2022-12-18T04:04:45.577Z,103123.94
2022-12-18T04:05:48.890Z,103122.72
2022-12-18T04:06:51.823Z,103131.25
2022-12-18T04:07:54.918Z,103131.50
2022-12-18T04:08:58.147Z,103128.03
2022-12-18T04:10:02.025Z,103135.47
2022-12-18T04:11:03.802Z,103126.16
2022-12-18T04:12:06.956Z,103138.09
2022-12-18T04:13:08.465Z,103138.91
2022-12-18T04:14:14.396Z,103139.00
2022-12-18T04:15:18.981Z,103139.69
2022-12-18T04:16:20.474Z,103139.94
2022-12-18T04:17:23.356Z,103145.19
2022-12-18T04:18:24.801Z,103140.75
2022-12-18T04:19:26.178Z,103139.59
2022-12-18T04:20:27.580Z,103133.09
2022-12-18T04:21:28.983Z,103125.94
2022-12-18T04:22:30.402Z,103133.50
2022-12-18T04:23:31.936Z,103135.47
2022-12-18T04:24:33.423Z,103136.13
2022-12-18T04:25:34.834Z,103143.97
2022-12-18T04:26:36.275Z,103145.50
2022-12-18T04:27:37.675Z,103146.31
2022-12-18T04:28:39.097Z,103148.44
2022-12-18T04:29:40.700Z,103156.69
2022-12-18T04:30:42.133Z,103163.22
2022-12-18T04:31:43.570Z,103158.56
2022-12-18T04:32:50.541Z,103159.75
2022-12-18T04:33:53.656Z,103155.78
2022-12-18T04:34:55.095Z,103156.03
2022-12-18T04:35:56.499Z,103154.31
2022-12-18T04:36:57.908Z,103157.78
2022-12-18T04:37:59.834Z,103155.69
2022-12-18T04:39:01.410Z,103155.41
2022-12-18T04:40:02.841Z,103151.44
2022-12-18T04:41:04.347Z,103157.41
2022-12-18T04:42:05.828Z,103157.00
2022-12-18T04:43:07.334Z,103171.06
2022-12-18T04:44:08.955Z,103162.56
2022-12-18T04:45:10.561Z,103168.13
2022-12-18T04:46:12.018Z,103158.06
2022-12-18T04:47:13.434Z,103164.81
2022-12-18T04:48:14.869Z,103155.94
2022-12-18T04:49:16.289Z,103164.44
2022-12-18T04:50:17.860Z,103162.28
2022-12-18T04:51:24.727Z,103160.44
2022-12-18T04:52:28.120Z,103156.72
2022-12-18T04:53:29.540Z,103166.00
2022-12-18T04:54:30.914Z,103160.56
2022-12-18T04:55:32.297Z,103162.81
2022-12-18T04:56:33.763Z,103161.22
2022-12-18T04:57:35.185Z,103165.97
2022-12-18T04:58:38.046Z,103163.63
2022-12-18T04:59:39.449Z,103166.66
2022-12-18T05:00:40.864Z,103170.09
2022-12-18T05:01:42.350Z,103171.28
2022-12-18T05:02:44.221Z,103172.91
2022-12-18T05:03:46.142Z,103171.72
2022-12-18T05:04:47.706Z,103167.69
2022-12-18T05:05:52.744Z,103166.53
2022-12-18T05:06:54.121Z,103168.09
2022-12-18T05:07:55.573Z,103159.34
2022-12-18T05:08:57.089Z,103156.13
2022-12-18T05:09:58.496Z,103154.03
2022-12-18T05:11:05.216Z,103155.88
2022-12-18T05:12:06.949Z,103163.47
2022-12-18T05:13:08.357Z,103158.69
2022-12-18T05:14:09.761Z,103162.94
2022-12-18T05:15:11.152Z,103167.59
2022-12-18T05:16:13.963Z,103170.25
2022-12-18T05:17:15.394Z,103178.19
2022-12-18T05:18:16.810Z,103187.25
2022-12-18T05:19:18.323Z,103181.69
2022-12-18T05:20:19.947Z,103186.97
2022-12-18T05:21:21.429Z,103189.88
2022-12-18T05:22:22.874Z,103174.34
2022-12-18T05:23:25.159Z,103176.59
2022-12-18T05:24:26.456Z,103175.53
2022-12-18T05:25:27.901Z,103173.41
2022-12-18T05:26:29.326Z,103180.59
2022-12-18T05:27:30.717Z,103176.34
2022-12-18T05:28:33.916Z,103170.75
2022-12-18T05:29:35.363Z,103179.47
2022-12-18T05:30:36.759Z,103168.84
2022-12-18T05:31:39.830Z,103175.00
2022-12-18T05:32:41.472Z,103183.22
2022-12-18T05:33:43.625Z,103184.44
2022-12-18T05:34:45.249Z,103190.91
2022-12-18T05:35:55.088Z,103189.09
2022-12-18T05:36:56.448Z,103193.06
2022-12-18T05:37:57.856Z,103195.31
2022-12-18T05:39:01.054Z,103202.63
2022-12-18T05:40:04.114Z,103204.97
2022-12-18T05:41:06.668Z,103201.00
2022-12-18T05:42:08.071Z,103206.31
2022-12-18T05:43:09.464Z,103201.00
2022-12-18T05:44:10.839Z,103199.53
2022-12-18T05:45:12.250Z,103207.13
2022-12-18T05:46:16.482Z,103207.25
2022-12-18T05:47:18.070Z,103208.72
2022-12-18T05:48:19.987Z,103207.66
2022-12-18T05:49:21.388Z,103214.94
2022-12-18T05:50:22.764Z,103210.97
2022-12-18T05:51:24.190Z,103209.91
2022-12-18T05:52:25.616Z,103196.66
2022-12-18T05:53:27.159Z,103208.16
2022-12-18T05:54:29.389Z,103209.22
2022-12-18T05:55:34.872Z,103195.97
2022-12-18T05:56:36.308Z,103209.13
2022-12-18T05:57:37.718Z,103204.22
2022-12-18T05:58:39.671Z,103211.38
2022-12-18T05:59:41.077Z,103211.63
2022-12-18T06:00:45.114Z,103213.75
2022-12-18T06:01:47.039Z,103207.13
2022-12-18T06:02:48.656Z,103213.47
2022-12-18T06:03:50.527Z,103209.63
2022-12-18T06:04:52.007Z,103215.06
2022-12-18T06:05:53.460Z,103210.53
2022-12-18T06:06:55.018Z,103211.47
2022-12-18T06:07:56.437Z,103217.59
2022-12-18T06:08:57.963Z,103210.81
2022-12-18T06:09:59.419Z,103216.94
2022-12-18T06:11:00.803Z,103221.19
2022-12-18T06:12:02.184Z,103218.13
2022-12-18T06:13:04.137Z,103220.38
2022-12-18T06:14:06.811Z,103224.31
2022-12-18T06:15:08.800Z,103224.31
2022-12-18T06:16:10.277Z,103229.66
2022-12-18T06:17:11.765Z,103226.38
2022-12-18T06:18:13.610Z,103232.75
2022-12-18T06:19:17.122Z,103228.91
2022-12-18T06:20:18.808Z,103219.59
2022-12-18T06:21:20.701Z,103230.09
2022-12-18T06:22:22.497Z,103241.63
2022-12-18T06:23:24.235Z,103248.00
2022-12-18T06:24:25.619Z,103239.53
2022-12-18T06:25:27.110Z,103243.09
2022-12-18T06:26:28.832Z,103237.91
2022-12-18T06:27:30.301Z,103241.88
2022-12-18T06:28:31.778Z,103238.25
2022-12-18T06:29:33.174Z,103233.88
2022-12-18T06:30:34.613Z,103233.13
2022-12-18T06:31:36.096Z,103234.94
2022-12-18T06:32:37.581Z,103234.59
2022-12-18T06:33:39.811Z,103233.13
2022-12-18T06:34:41.385Z,103234.59
2022-12-18T06:35:42.818Z,103247.19
2022-12-18T06:36:44.248Z,103244.25
2022-12-18T06:37:45.658Z,103241.31
2022-12-18T06:38:47.309Z,103250.91
2022-12-18T06:39:48.688Z,103243.06
2022-12-18T06:40:50.108Z,103250.88
2022-12-18T06:41:54.258Z,103247.69
2022-12-18T06:42:55.702Z,103243.50
2022-12-18T06:44:00.008Z,103242.69
2022-12-18T06:45:01.759Z,103251.31
2022-12-18T06:46:04.228Z,103248.41
2022-12-18T06:47:05.720Z,103256.75
2022-12-18T06:48:07.123Z,103260.19
2022-12-18T06:49:10.040Z,103254.09
2022-12-18T06:50:12.667Z,103254.09
2022-12-18T06:51:22.952Z,103256.56
2022-12-18T06:52:24.418Z,103259.78
2022-12-18T06:53:25.908Z,103262.06
2022-12-18T06:54:27.333Z,103268.94
2022-12-18T06:55:28.740Z,103266.81
2022-12-18T06:56:30.649Z,103269.88
2022-12-18T06:57:32.043Z,103275.19
2022-12-18T06:58:34.281Z,103273.22
2022-12-18T06:59:35.599Z,103277.19
2022-12-18T07:00:37.041Z,103280.91
2022-12-18T07:01:38.622Z,103271.88
2022-12-18T07:02:41.387Z,103270.81
2022-12-18T07:03:44.574Z,103271.47
2022-12-18T07:04:46.481Z,103280.25
2022-12-18T07:05:47.873Z,103281.44
2022-12-18T07:06:49.407Z,103272.81
2022-12-18T07:07:50.851Z,103281.16
2022-12-18T07:08:53.967Z,103276.13
2022-12-18T07:09:55.368Z,103278.91
2022-12-18T07:10:56.819Z,103273.75
2022-12-18T07:11:58.249Z,103274.94
2022-12-18T07:13:00.698Z,103247.47
2022-12-18T07:14:02.150Z,103268.28
2022-12-18T07:15:04.088Z,103271.75
2022-12-18T07:16:18.395Z,103267.09
2022-12-18T07:17:22.440Z,103268.00
2022-12-18T07:18:23.869Z,103272.13
2022-12-18T07:19:25.282Z,103273.19
2022-12-18T07:20:26.669Z,103274.13
2022-12-18T07:21:28.098Z,103267.88
2022-12-18T07:22:29.487Z,103281.28
2022-12-18T07:23:31.236Z,103275.06
2022-12-18T07:24:34.780Z,103260.16
2022-12-18T07:25:37.395Z,103271.03
2022-12-18T07:26:39.019Z,103270.13
2022-12-18T07:27:40.873Z,103272.63
2022-12-18T07:28:42.609Z,103271.31
2022-12-18T07:29:44.002Z,103275.56
2022-12-18T07:30:45.421Z,103280.31
2022-12-18T07:31:46.998Z,103276.72
2022-12-18T07:32:48.472Z,103271.78
2022-12-18T07:33:50.874Z,103264.75
2022-12-18T07:34:52.262Z,103270.50
2022-12-18T07:35:53.681Z,103262.78
2022-12-18T07:36:55.092Z,103274.44
2022-12-18T07:37:56.562Z,103274.06
2022-12-18T07:38:58.062Z,103273.41
2022-12-18T07:39:59.481Z,103285.06
2022-12-18T07:41:06.719Z,103280.41
2022-12-18T07:42:26.648Z,103271.91
2022-12-18T07:43:29.333Z,103271.34
2022-12-18T07:44:30.731Z,103261.66
2022-12-18T07:45:32.214Z,103266.03
2022-12-18T07:46:33.669Z,103267.91
2022-12-18T07:47:36.988Z,103261.16
2022-12-18T07:48:38.421Z,103276.03
2022-12-18T07:49:39.876Z,103275.38
2022-12-18T07:50:41.286Z,103270.06
2022-12-18T07:51:43.055Z,103274.69
2022-12-18T07:52:44.499Z,103269.50
2022-12-18T07:53:46.705Z,103260.19
2022-12-18T07:54:51.008Z,103269.63
2022-12-18T07:56:25.608Z,103270.66
2022-12-18T07:57:48.412Z,103269.09
2022-12-18T07:58:40.701Z,103260.19
2022-12-18T07:59:42.123Z,103265.72
2022-12-18T08:00:43.511Z,103262.94
2022-12-18T08:01:46.400Z,103260.25
2022-12-18T08:02:48.592Z,103266.66
2022-12-18T08:03:50.214Z,103271.75
2022-12-18T08:04:53.788Z,103254.47
2022-12-18T08:05:59.751Z,103273.09
2022-12-18T08:07:01.295Z,103275.41
2022-12-18T08:08:02.743Z,103266.44
2022-12-18T08:09:04.182Z,103269.25
2022-12-18T08:10:06.427Z,103268.56
2022-12-18T08:11:07.706Z,103274.56
2022-12-18T08:12:09.097Z,103267.13
2022-12-18T08:13:10.570Z,103278.56
2022-12-18T08:14:12.120Z,103278.03
2022-12-18T08:15:13.517Z,103275.34
2022-12-18T08:16:14.969Z,103284.38
2022-12-18T08:17:16.445Z,103281.56
2022-12-18T08:18:17.966Z,103270.69
2022-12-18T08:19:19.373Z,103279.59
2022-12-18T08:20:20.757Z,103275.22
2022-12-18T08:21:25.533Z,103272.69
2022-12-18T08:22:26.955Z,103285.69
2022-12-18T08:23:28.928Z,103279.28
2022-12-18T08:24:30.448Z,103286.22
2022-12-18T08:25:31.865Z,103278.56
2022-12-18T08:26:33.346Z,103286.88
2022-12-18T08:27:34.851Z,103283.59
2022-12-18T08:28:36.723Z,103292.13
2022-12-18T08:29:38.230Z,103290.03
2022-12-18T08:30:39.640Z,103284.72
2022-12-18T08:31:41.817Z,103286.53
2022-12-18T08:32:43.318Z,103287.63
2022-12-18T08:33:44.843Z,103280.69
2022-12-18T08:34:46.295Z,103284.38
2022-12-18T08:35:47.689Z,103282.50
2022-12-18T08:36:49.124Z,103283.59
2022-12-18T08:37:51.059Z,103274.97
2022-12-18T08:38:52.703Z,103287.94
2022-12-18T08:39:54.109Z,103296.63
2022-12-18T08:41:03.699Z,103290.66
2022-12-18T08:42:23.537Z,103288.91
2022-12-18T08:43:43.564Z,103282.50
2022-12-18T08:44:45.001Z,103292.28
2022-12-18T08:45:46.407Z,103298.19
2022-12-18T08:46:47.964Z,103298.34
2022-12-18T08:47:49.385Z,103299.28
2022-12-18T08:48:56.006Z,103299.28
2022-12-18T08:49:57.419Z,103303.03
2022-12-18T08:51:00.440Z,103286.94
2022-12-18T08:52:03.662Z,103304.53
2022-12-18T08:53:08.163Z,103300.91
2022-12-18T08:54:12.343Z,103300.06
2022-12-18T08:55:13.808Z,103315.34
2022-12-18T08:56:15.629Z,103315.72
2022-12-18T08:57:17.100Z,103319.41
2022-12-18T08:58:18.963Z,103323.69
2022-12-18T08:59:21.131Z,103329.28
2022-12-18T09:00:22.996Z,103319.94
2022-12-18T09:01:24.939Z,103319.56
2022-12-18T09:02:26.585Z,103322.84
2022-12-18T09:03:28.227Z,103323.34
2022-12-18T09:04:29.634Z,103326.25
2022-12-18T09:05:31.509Z,103328.44
2022-12-18T09:06:32.903Z,103324.72
2022-12-18T09:07:34.355Z,103325.06
2022-12-18T09:08:35.908Z,103323.34
2022-12-18T09:09:37.297Z,103314.19
2022-12-18T09:10:46.641Z,103324.97
2022-12-18T09:11:48.083Z,103329.66
2022-12-18T09:12:52.255Z,103334.44
2022-12-18T09:13:54.792Z,103324.44
2022-12-18T09:14:57.279Z,103329.66
2022-12-18T09:15:58.868Z,103335.31
2022-12-18T09:17:00.326Z,103337.97
2022-12-18T09:18:01.817Z,103328.25
2022-12-18T09:19:05.447Z,103330.72
2022-12-18T09:20:07.911Z,103338.47
2022-12-18T09:21:21.440Z,103336.19
2022-12-18T09:22:22.808Z,103338.28
2022-12-18T09:23:24.232Z,103334.25
2022-12-18T09:24:25.638Z,103330.03
2022-12-18T09:25:28.658Z,103339.06
2022-12-18T09:26:30.098Z,103338.63
2022-12-18T09:27:31.519Z,103337.78
2022-12-18T09:28:33.285Z,103336.56
2022-12-18T09:29:34.735Z,103327.72
2022-12-18T09:30:42.139Z,103333.53
2022-12-18T09:31:43.562Z,103312.03
2022-12-18T09:32:44.963Z,103343.19
2022-12-18T09:33:46.370Z,103343.31
2022-12-18T09:34:48.253Z,103347.47
2022-12-18T09:35:49.702Z,103340.13
2022-12-18T09:36:51.250Z,103346.47
2022-12-18T09:37:55.681Z,103338.38
2022-12-18T09:38:57.792Z,103335.56
2022-12-18T09:39:59.180Z,103331.66
2022-12-18T09:41:06.421Z,103325.09
2022-12-18T09:42:21.111Z,103322.88
2022-12-18T09:43:34.967Z,103315.94
2022-12-18T09:44:49.478Z,103321.53
2022-12-18T09:45:58.148Z,103311.06
2022-12-18T09:47:08.320Z,103315.22
2022-12-18T09:48:27.180Z,103311.63
2022-12-18T09:49:31.435Z,103314.84
2022-12-18T09:50:36.176Z,103320.41
2022-12-18T09:51:44.273Z,103305.66
2022-12-18T09:52:50.489Z,103310.28
2022-12-18T09:53:59.159Z,103305.38
2022-12-18T09:55:14.605Z,103301.31
2022-12-18T09:56:20.448Z,103300.59
2022-12-18T09:57:25.371Z,103295.41
2022-12-18T09:58:37.108Z,103296.34
2022-12-18T09:59:40.725Z,103296.91
2022-12-18T10:00:42.268Z,103295.09
2022-12-18T10:01:44.751Z,103288.13
2022-12-18T10:02:49.835Z,103285.13
2022-12-18T10:03:52.914Z,103287.94
2022-12-18T10:05:31.751Z,103272.16
2022-12-18T10:06:42.549Z,103265.91
2022-12-18T10:08:12.052Z,103267.53
2022-12-18T10:09:22.861Z,103274.97
2022-12-18T10:10:54.483Z,103274.25
2022-12-18T10:12:17.777Z,103263.25
2022-12-18T10:13:31.982Z,103251.44
2022-12-18T10:15:17.675Z,103265.03
2022-12-18T10:16:28.730Z,103269.63
2022-12-18T10:18:01.115Z,103269.75
2022-12-18T10:19:10.900Z,103268.84
2022-12-18T10:20:21.412Z,103265.25
2022-12-18T10:21:31.724Z,103270.44
2022-12-18T10:22:39.133Z,103260.72
2022-12-18T10:24:02.090Z,103267.69
2022-12-18T10:25:21.612Z,103265.97
2022-12-18T10:26:23.237Z,103261.78
2022-12-18T10:27:27.243Z,103260.72
2022-12-18T10:28:32.155Z,103250.06
2022-12-18T10:29:33.656Z,103258.28
2022-12-18T10:30:35.072Z,103256.47
2022-12-18T10:31:36.649Z,103252.50
2022-12-18T10:32:38.504Z,103266.63
2022-12-18T10:33:42.213Z,103249.72
2022-12-18T10:34:47.454Z,103254.81
2022-12-18T10:35:51.534Z,103251.56
2022-12-18T10:36:53.022Z,103243.72
2022-12-18T10:38:04.990Z,103245.31
2022-12-18T10:39:24.626Z,103246.03
2022-12-18T10:40:26.164Z,103243.72
2022-12-18T10:41:29.448Z,103233.03
2022-12-18T10:42:31.025Z,103238.38
2022-12-18T10:43:40.547Z,103237.66
2022-12-18T10:44:41.998Z,103236.28
2022-12-18T10:46:00.103Z,103234.41
2022-12-18T10:47:11.835Z,103225.38
2022-12-18T10:48:23.242Z,103225.63
2022-12-18T10:49:28.905Z,103230.97
2022-12-18T10:51:09.292Z,103240.56
2022-12-18T10:52:32.288Z,103230.13
2022-12-18T10:53:37.231Z,103233.34
2022-12-18T10:54:39.473Z,103225.84
2022-12-18T10:55:46.867Z,103229.81
2022-12-18T10:56:48.769Z,103215.19
2022-12-18T10:57:53.135Z,103226.06
2022-12-18T10:59:06.850Z,103218.88
2022-12-18T11:00:36.761Z,103220.75
2022-12-18T11:01:56.584Z,103224.22
2022-12-18T11:03:01.071Z,103224.13
2022-12-18T11:04:09.756Z,103221.44
2022-12-18T11:05:24.118Z,103217.03
2022-12-18T11:06:26.563Z,103215.53
2022-12-18T11:07:49.638Z,103219.34
2022-12-18T11:09:23.683Z,103219.81
2022-12-18T11:10:37.849Z,103210.19
2022-12-18T11:11:39.331Z,103214.25
2022-12-18T11:12:40.778Z,103207.75
2022-12-18T11:13:44.878Z,103217.50
2022-12-18T11:14:52.712Z,103217.03
2022-12-18T11:15:54.912Z,103222.13
2022-12-18T11:17:24.288Z,103225.13
2022-12-18T11:18:34.259Z,103223.28
2022-12-18T11:19:38.199Z,103217.13
2022-12-18T11:20:39.998Z,103222.47
2022-12-18T11:21:44.368Z,103222.13
2022-12-18T11:22:57.964Z,103211.00
2022-12-18T11:23:59.384Z,103216.56
2022-12-18T11:26:37.159Z,103206.81
2022-12-18T11:27:40.623Z,103213.53
2022-12-18T11:28:47.375Z,103206.81
2022-12-18T11:29:52.782Z,103210.72
2022-12-18T11:31:22.210Z,103212.59
2022-12-18T11:32:39.513Z,103202.66
2022-12-18T11:34:04.876Z,103210.50
2022-12-18T11:35:45.599Z,103215.97
2022-12-18T11:36:48.314Z,103213.75
2022-12-18T11:37:58.554Z,103215.41
2022-12-18T11:39:07.172Z,103218.28
2022-12-18T11:40:23.465Z,103217.00
2022-12-18T11:41:52.129Z,103214.44
2022-12-18T11:43:01.892Z,103209.47
2022-12-18T11:44:06.595Z,103207.13
2022-12-18T11:45:13.991Z,103216.75
2022-12-18T11:46:24.025Z,103217.78
2022-12-18T11:47:43.532Z,103217.47
2022-12-18T11:48:58.868Z,103211.09
2022-12-18T11:50:02.819Z,103204.16
2022-12-18T11:51:12.119Z,103215.41
2022-12-18T11:52:19.269Z,103221.63
2022-12-18T11:53:21.465Z,103212.16
2022-12-18T11:54:22.839Z,103220.16
2022-12-18T11:55:41.892Z,103227.56
2022-12-18T11:57:14.348Z,103227.44
2022-12-18T11:58:30.956Z,103228.16
2022-12-18T11:59:44.927Z,103233.13
2022-12-18T12:00:57.238Z,103232.78
2022-12-18T12:02:10.698Z,103242.06
2022-12-18T12:03:45.599Z,103235.94
2022-12-18T12:05:20.583Z,103240.19
2022-12-18T12:06:22.340Z,103238.34
2022-12-18T12:07:29.744Z,103240.41
2022-12-18T12:08:42.132Z,103246.25
2022-12-18T12:10:28.921Z,103245.09
2022-12-18T12:11:44.518Z,103244.94
2022-12-18T12:13:15.223Z,103244.16
2022-12-18T12:14:51.945Z,103240.91
2022-12-18T12:16:24.532Z,103237.31
2022-12-18T12:17:38.809Z,103238.69
2022-12-18T12:18:53.475Z,103236.72
2022-12-18T12:20:14.000Z,103238.81
2022-12-18T12:21:26.317Z,103243.44
2022-12-18T12:22:40.962Z,103239.97
2022-12-18T12:24:26.918Z,103237.97
2022-12-18T12:25:38.898Z,103235.22
2022-12-18T12:26:51.759Z,103239.84
2022-12-18T12:28:07.759Z,103237.41
2022-12-18T12:29:28.927Z,103249.56
2022-12-18T12:31:07.958Z,103253.38
2022-12-18T12:32:27.129Z,103252.69
2022-12-18T12:33:37.820Z,103254.31
2022-12-18T12:35:11.650Z,103251.78
2022-12-18T12:36:31.752Z,103260.81
2022-12-18T12:37:54.447Z,103259.88